createdAt,value
2017-02-28T00:00:01.468Z,0
2017-02-28T00:00:43.234Z,0
2017-02-28T00:01:24.853Z,0
2017-02-28T00:02:06.388Z,0
2017-02-28T00:02:48.070Z,0
2017-02-28T00:03:29.623Z,0
2017-02-28T00:05:50.251Z,0
2017-02-28T00:06:31.875Z,0
2017-02-28T00:07:13.336Z,0
2017-02-28T00:09:33.943Z,0
2017-02-28T00:10:15.748Z,0
2017-02-28T00:10:57.253Z,0
2017-02-28T00:11:38.905Z,0
2017-02-28T00:13:54.028Z,0
2017-02-28T00:14:35.739Z,0
2017-02-28T00:15:17.351Z,0
2017-02-28T00:15:58.863Z,0
2017-02-28T00:16:40.439Z,0
2017-02-28T00:17:22.175Z,0
2017-02-28T00:18:03.746Z,0
2017-02-28T00:20:18.948Z,0
2017-02-28T00:21:00.651Z,0
2017-02-28T00:21:42.408Z,0
2017-02-28T00:22:23.895Z,0
2017-02-28T00:23:05.471Z,0
2017-02-28T00:25:25.911Z,0
2017-02-28T00:26:07.438Z,0
2017-02-28T00:26:49.239Z,0
2017-02-28T00:27:30.691Z,0
2017-02-28T00:29:51.202Z,0
2017-02-28T00:30:32.850Z,0
2017-02-28T00:31:14.436Z,0
2017-02-28T00:33:29.765Z,0
2017-02-28T00:34:11.409Z,0
2017-02-28T00:34:53.158Z,0
2017-02-28T00:35:34.877Z,0
2017-02-28T00:36:16.443Z,0
2017-02-28T00:36:57.973Z,0
2017-02-28T00:37:39.697Z,0
2017-02-28T00:38:21.200Z,0
2017-02-28T00:39:02.720Z,0
2017-02-28T00:41:17.971Z,0
2017-02-28T00:41:59.494Z,0
2017-02-28T00:44:41.102Z,0
2017-02-28T00:45:22.657Z,0
2017-02-28T00:47:43.108Z,0
2017-02-28T00:52:13.813Z,0
2017-02-28T00:52:55.288Z,0
2017-02-28T00:53:36.963Z,0
2017-02-28T00:54:18.497Z,0
2017-02-28T00:56:33.574Z,0
2017-02-28T00:57:14.825Z,0
2017-02-28T00:57:56.537Z,0
2017-02-28T00:58:38.070Z,0
2017-02-28T00:59:19.391Z,0
2017-02-28T01:00:00.685Z,0
2017-02-28T01:00:42.111Z,0
2017-02-28T01:01:23.569Z,0
2017-02-28T01:02:04.677Z,0
2017-02-28T01:02:46.044Z,0
2017-02-28T01:03:27.493Z,0
2017-02-28T01:04:08.823Z,0
2017-02-28T01:04:50.276Z,0
2017-02-28T01:05:31.808Z,0
2017-02-28T01:06:13.461Z,0
2017-02-28T01:06:55.161Z,0
2017-02-28T01:07:36.706Z,0
2017-02-28T01:08:18.385Z,0
2017-02-28T01:09:00.022Z,0
2017-02-28T01:09:41.686Z,0
2017-02-28T01:10:23.038Z,0
2017-02-28T01:11:04.656Z,0
2017-02-28T01:11:46.315Z,0
2017-02-28T01:12:28.057Z,0
2017-02-28T01:14:43.553Z,0
2017-02-28T01:17:14.060Z,0
2017-02-28T01:17:55.720Z,0
2017-02-28T01:18:37.278Z,0
2017-02-28T01:19:18.891Z,0
2017-02-28T01:20:00.439Z,0
2017-02-28T01:20:42.002Z,0
2017-02-28T01:23:23.283Z,0
2017-02-28T01:24:04.884Z,0
2017-02-28T01:24:46.443Z,0
2017-02-28T01:25:28.081Z,0
2017-02-28T01:26:09.607Z,0
2017-02-28T01:26:51.152Z,0
2017-02-28T01:27:32.711Z,0
2017-02-28T01:28:14.272Z,0
2017-02-28T01:28:55.811Z,0
2017-02-28T01:29:37.345Z,0
2017-02-28T01:30:18.849Z,0
2017-02-28T01:31:00.342Z,0
2017-02-28T01:31:41.940Z,0
2017-02-28T01:34:13.014Z,0
2017-02-28T01:34:54.676Z,0
2017-02-28T01:35:36.409Z,0
2017-02-28T01:36:17.994Z,0
2017-02-28T01:38:59.453Z,0
2017-02-28T01:39:41.009Z,0
2017-02-28T01:42:22.631Z,0
2017-02-28T01:44:53.547Z,0
2017-02-28T01:45:35.041Z,0
2017-02-28T01:46:16.691Z,0
2017-02-28T01:46:58.077Z,0
2017-02-28T01:47:39.724Z,0
2017-02-28T01:48:21.386Z,0
2017-02-28T01:51:03.262Z,0
2017-02-28T01:53:34.214Z,0
2017-02-28T01:54:15.721Z,0
2017-02-28T01:54:57.117Z,0
2017-02-28T01:55:38.617Z,0
2017-02-28T01:56:20.252Z,0
2017-02-28T01:57:01.877Z,0
2017-02-28T01:57:43.463Z,0
2017-02-28T01:58:24.984Z,0
2017-02-28T01:59:06.610Z,0
2017-02-28T02:01:21.076Z,0
2017-02-28T02:02:01.614Z,0
2017-02-28T02:02:42.148Z,0
2017-02-28T02:03:22.679Z,0
2017-02-28T02:04:03.307Z,0
2017-02-28T02:04:43.861Z,0
2017-02-28T02:05:24.407Z,0
2017-02-28T02:06:04.944Z,0
2017-02-28T02:06:45.485Z,0
2017-02-28T02:07:26.018Z,0
2017-02-28T02:08:06.555Z,0
2017-02-28T02:08:47.089Z,0
2017-02-28T02:09:27.630Z,0
2017-02-28T02:10:08.165Z,0
2017-02-28T02:10:48.703Z,0
2017-02-28T02:11:29.238Z,0
2017-02-28T02:12:09.774Z,0
2017-02-28T02:12:50.306Z,0
2017-02-28T02:13:30.842Z,0
2017-02-28T02:14:11.382Z,0
2017-02-28T02:14:51.919Z,0
2017-02-28T02:15:32.463Z,0
2017-02-28T02:16:12.992Z,0
2017-02-28T02:16:53.527Z,0
2017-02-28T02:17:34.060Z,0
2017-02-28T02:18:14.599Z,0
2017-02-28T02:18:55.155Z,0
2017-02-28T02:19:35.693Z,0
2017-02-28T02:20:16.226Z,0
2017-02-28T02:20:56.770Z,0
2017-02-28T02:21:37.313Z,0
2017-02-28T02:22:17.840Z,0
2017-02-28T02:22:58.381Z,0
2017-02-28T02:23:38.915Z,0
2017-02-28T02:24:19.451Z,0
2017-02-28T02:24:59.996Z,0
2017-02-28T02:25:40.533Z,0
2017-02-28T02:26:21.072Z,0
2017-02-28T02:27:01.599Z,0
2017-02-28T02:27:42.142Z,0
2017-02-28T02:28:22.672Z,0
2017-02-28T02:29:03.209Z,0
2017-02-28T02:29:43.751Z,0
2017-02-28T02:30:24.289Z,0
2017-02-28T02:31:04.828Z,0
2017-02-28T02:31:45.371Z,0
2017-02-28T02:32:25.907Z,0
2017-02-28T02:33:06.443Z,0
2017-02-28T02:33:46.977Z,0
2017-02-28T02:34:27.515Z,0
2017-02-28T02:35:08.058Z,0
2017-02-28T02:35:48.599Z,0
2017-02-28T02:36:29.139Z,0
2017-02-28T02:37:09.681Z,0
2017-02-28T02:37:50.220Z,0
2017-02-28T02:38:30.762Z,0
2017-02-28T02:39:11.301Z,0
2017-02-28T02:39:51.848Z,0
2017-02-28T02:40:32.379Z,0
2017-02-28T02:41:12.914Z,0
2017-02-28T02:41:53.451Z,0
2017-02-28T02:42:33.996Z,0
2017-02-28T02:43:14.536Z,0
2017-02-28T02:43:55.056Z,0
2017-02-28T02:44:35.598Z,0
2017-02-28T02:45:16.131Z,0
2017-02-28T02:45:56.671Z,0
2017-02-28T02:46:37.210Z,0
2017-02-28T02:47:17.738Z,0
2017-02-28T02:47:58.266Z,0
2017-02-28T02:48:38.801Z,0
2017-02-28T02:49:19.336Z,0
2017-02-28T02:49:59.869Z,0
2017-02-28T02:50:40.415Z,0
2017-02-28T02:51:20.948Z,0
2017-02-28T02:52:01.508Z,0
2017-02-28T02:52:42.051Z,0
2017-02-28T02:53:22.593Z,0
2017-02-28T02:54:03.137Z,0
2017-02-28T02:54:43.675Z,0
2017-02-28T02:55:24.211Z,0
2017-02-28T02:56:04.742Z,0
2017-02-28T02:56:45.284Z,0
2017-02-28T02:57:25.835Z,0
2017-02-28T02:58:06.371Z,0
2017-02-28T02:58:46.913Z,0
2017-02-28T02:59:27.452Z,0
2017-02-28T03:00:07.988Z,0
2017-02-28T03:00:48.528Z,0
2017-02-28T03:01:29.067Z,0
2017-02-28T03:02:09.600Z,0
2017-02-28T03:02:50.141Z,0
2017-02-28T03:03:30.690Z,0
2017-02-28T03:04:11.235Z,0
2017-02-28T03:04:51.795Z,0
2017-02-28T03:05:32.312Z,0
2017-02-28T03:06:12.844Z,0
2017-02-28T03:06:53.377Z,0
2017-02-28T03:07:33.913Z,0
2017-02-28T03:08:14.452Z,0
2017-02-28T03:08:54.987Z,0
2017-02-28T03:09:35.527Z,0
2017-02-28T03:10:16.058Z,0
2017-02-28T03:10:56.593Z,0
2017-02-28T03:11:37.131Z,0
2017-02-28T03:12:17.673Z,0
2017-02-28T03:12:58.205Z,0
2017-02-28T03:13:38.757Z,0
2017-02-28T03:14:19.292Z,0
2017-02-28T03:14:59.835Z,0
2017-02-28T03:15:40.368Z,0
2017-02-28T03:16:20.903Z,0
2017-02-28T03:17:01.440Z,0
2017-02-28T03:17:41.981Z,0
2017-02-28T03:18:22.523Z,0
2017-02-28T03:19:03.063Z,0
2017-02-28T03:19:43.607Z,0
2017-02-28T03:20:24.155Z,0
2017-02-28T03:21:04.694Z,0
2017-02-28T03:21:45.235Z,0
2017-02-28T03:22:25.771Z,0
2017-02-28T03:23:06.325Z,0
2017-02-28T03:23:46.847Z,0
2017-02-28T03:24:27.383Z,0
2017-02-28T03:25:07.923Z,0
2017-02-28T03:25:48.461Z,0
2017-02-28T03:26:29.002Z,0
2017-02-28T03:27:09.544Z,0
2017-02-28T03:27:50.080Z,0
2017-02-28T03:28:30.632Z,0
2017-02-28T03:29:11.183Z,0
2017-02-28T03:29:51.728Z,0
2017-02-28T03:30:32.260Z,0
2017-02-28T03:31:12.791Z,0
2017-02-28T03:31:53.322Z,0
2017-02-28T03:32:33.858Z,0
2017-02-28T03:33:14.395Z,0
2017-02-28T03:33:54.993Z,0
2017-02-28T03:34:35.525Z,0
2017-02-28T03:35:16.060Z,0
2017-02-28T03:35:56.611Z,0
2017-02-28T03:36:37.147Z,0
2017-02-28T03:37:17.682Z,0
2017-02-28T03:37:58.209Z,0
2017-02-28T03:38:38.747Z,0
2017-02-28T03:39:19.282Z,0
2017-02-28T03:39:59.814Z,0
2017-02-28T03:40:40.345Z,0
2017-02-28T03:41:20.886Z,0
2017-02-28T03:42:01.405Z,0
2017-02-28T03:42:41.950Z,0
2017-02-28T03:43:22.483Z,0
2017-02-28T03:44:03.018Z,0
2017-02-28T03:44:43.560Z,0
2017-02-28T03:45:24.105Z,0
2017-02-28T03:46:04.640Z,0
2017-02-28T03:46:45.167Z,0
2017-02-28T03:47:25.709Z,0
2017-02-28T03:48:06.248Z,0
2017-02-28T03:48:46.784Z,0
2017-02-28T03:49:27.321Z,0
2017-02-28T03:50:07.865Z,0
2017-02-28T03:50:48.399Z,0
2017-02-28T03:51:28.935Z,0
2017-02-28T03:52:09.462Z,0
2017-02-28T03:52:50.007Z,0
2017-02-28T03:53:30.537Z,0
2017-02-28T03:54:11.114Z,0
2017-02-28T03:54:51.654Z,0
2017-02-28T03:55:32.191Z,0
2017-02-28T03:56:12.723Z,0
2017-02-28T03:56:53.258Z,0
2017-02-28T03:57:33.798Z,0
2017-02-28T03:58:14.327Z,0
2017-02-28T03:58:54.862Z,0
2017-02-28T03:59:35.394Z,0
2017-02-28T04:00:15.929Z,0
2017-02-28T04:00:56.489Z,0
2017-02-28T04:01:37.028Z,0
2017-02-28T04:02:17.570Z,0
2017-02-28T04:02:58.105Z,0
2017-02-28T04:03:38.655Z,0
2017-02-28T04:04:19.206Z,0
2017-02-28T04:04:59.786Z,0
2017-02-28T04:05:40.329Z,0
2017-02-28T04:06:20.865Z,0
2017-02-28T04:07:01.419Z,0
2017-02-28T04:07:41.959Z,0
2017-02-28T04:08:22.504Z,0
2017-02-28T04:09:03.036Z,0
2017-02-28T04:09:43.573Z,0
2017-02-28T04:10:24.108Z,0
2017-02-28T04:11:04.651Z,0
2017-02-28T04:11:45.190Z,0
2017-02-28T04:12:25.731Z,0
2017-02-28T04:13:06.269Z,0
2017-02-28T04:13:46.815Z,0
2017-02-28T04:14:27.353Z,0
2017-02-28T04:15:07.888Z,0
2017-02-28T04:15:48.432Z,0
2017-02-28T04:16:28.967Z,0
2017-02-28T04:17:09.501Z,0
2017-02-28T04:17:50.044Z,0
2017-02-28T04:18:30.586Z,0
2017-02-28T04:19:11.121Z,0
2017-02-28T04:19:51.670Z,0
2017-02-28T04:20:32.222Z,0
2017-02-28T04:21:12.774Z,0
2017-02-28T04:21:53.310Z,0
2017-02-28T04:22:33.852Z,0
2017-02-28T04:23:14.389Z,0
2017-02-28T04:23:54.920Z,0
2017-02-28T04:24:35.464Z,0
2017-02-28T04:25:15.997Z,0
2017-02-28T04:25:56.541Z,0
2017-02-28T04:26:37.070Z,0
2017-02-28T04:27:17.603Z,0
2017-02-28T04:27:58.138Z,0
2017-02-28T04:28:38.674Z,0
2017-02-28T04:29:19.213Z,0
2017-02-28T04:29:59.750Z,0
2017-02-28T04:30:40.291Z,0
2017-02-28T04:31:20.831Z,0
2017-02-28T04:32:01.389Z,0
2017-02-28T04:32:44.548Z,0
2017-02-28T04:33:27.321Z,0
2017-02-28T04:34:10.362Z,0
2017-02-28T04:34:51.450Z,0
2017-02-28T04:35:35.012Z,0
2017-02-28T04:36:18.015Z,0
2017-02-28T04:36:58.577Z,0
2017-02-28T04:37:39.117Z,0
2017-02-28T04:38:19.678Z,0
2017-02-28T04:39:00.221Z,0
2017-02-28T04:39:40.757Z,0
2017-02-28T04:40:21.287Z,0
2017-02-28T04:41:01.824Z,0
2017-02-28T04:41:42.363Z,0
2017-02-28T04:42:22.901Z,0
2017-02-28T04:43:03.437Z,0
2017-02-28T04:43:43.979Z,0
2017-02-28T04:44:24.512Z,0
2017-02-28T04:45:05.068Z,0
2017-02-28T04:45:45.587Z,0
2017-02-28T04:46:28.183Z,0
2017-02-28T04:47:11.661Z,0
2017-02-28T04:47:55.059Z,0
2017-02-28T04:48:38.347Z,0
2017-02-28T04:49:20.084Z,0
2017-02-28T04:50:00.619Z,0
2017-02-28T04:50:41.156Z,0
2017-02-28T04:51:21.702Z,0
2017-02-28T04:52:02.241Z,0
2017-02-28T04:52:42.794Z,0
2017-02-28T04:53:23.327Z,0
2017-02-28T04:54:03.859Z,0
2017-02-28T04:54:44.391Z,0
2017-02-28T04:55:24.934Z,0
2017-02-28T04:56:05.497Z,0
2017-02-28T04:56:46.037Z,0
2017-02-28T04:57:26.584Z,0
2017-02-28T04:58:07.127Z,0
2017-02-28T04:58:47.659Z,0
2017-02-28T04:59:28.267Z,0
2017-02-28T05:00:08.813Z,0
2017-02-28T05:00:49.354Z,0
2017-02-28T05:01:29.891Z,0
2017-02-28T05:02:10.449Z,0
2017-02-28T05:02:50.985Z,0
2017-02-28T05:03:31.550Z,0
2017-02-28T05:04:12.093Z,0
2017-02-28T05:04:52.638Z,0
2017-02-28T05:05:33.191Z,0
2017-02-28T05:06:13.739Z,0
2017-02-28T05:06:54.296Z,0
2017-02-28T05:07:34.848Z,0
2017-02-28T05:08:15.389Z,0
2017-02-28T05:08:55.934Z,0
2017-02-28T05:09:36.487Z,0
2017-02-28T05:10:17.030Z,0
2017-02-28T05:10:57.575Z,0
2017-02-28T05:11:38.118Z,0
2017-02-28T05:12:18.660Z,0
2017-02-28T05:12:59.193Z,0
2017-02-28T05:13:39.730Z,0
2017-02-28T05:14:20.264Z,0
2017-02-28T05:15:00.809Z,0
2017-02-28T05:15:41.349Z,0
2017-02-28T05:16:21.895Z,0
2017-02-28T05:17:02.441Z,0
2017-02-28T05:17:42.976Z,0
2017-02-28T05:18:23.522Z,0
2017-02-28T05:19:04.049Z,0
2017-02-28T05:19:44.590Z,0
2017-02-28T05:20:25.204Z,0
2017-02-28T05:21:05.736Z,0
2017-02-28T05:21:46.280Z,0
2017-02-28T05:22:26.827Z,0
2017-02-28T05:23:07.369Z,0
2017-02-28T05:23:47.910Z,0
2017-02-28T05:24:28.443Z,0
2017-02-28T05:25:08.978Z,0
2017-02-28T05:25:49.520Z,0
2017-02-28T05:26:30.060Z,0
2017-02-28T05:27:10.595Z,0
2017-02-28T05:27:51.131Z,0
2017-02-28T05:28:31.686Z,0
2017-02-28T05:29:12.225Z,0
2017-02-28T05:29:52.760Z,0
2017-02-28T05:30:33.302Z,0
2017-02-28T05:31:13.830Z,0
2017-02-28T05:31:54.367Z,0
2017-02-28T05:32:34.909Z,0
2017-02-28T05:33:15.472Z,0
2017-02-28T05:33:55.981Z,0
2017-02-28T05:34:36.524Z,0
2017-02-28T05:35:17.061Z,0
2017-02-28T05:35:57.597Z,0
2017-02-28T05:36:38.134Z,0
2017-02-28T05:37:18.679Z,0
2017-02-28T05:37:59.225Z,0
2017-02-28T05:38:39.776Z,0
2017-02-28T05:39:20.314Z,0
2017-02-28T05:40:00.848Z,0
2017-02-28T05:40:41.387Z,0
2017-02-28T05:41:21.920Z,0
2017-02-28T05:42:02.460Z,0
2017-02-28T05:42:42.990Z,0
2017-02-28T05:43:23.529Z,0
2017-02-28T05:44:04.074Z,0
2017-02-28T05:44:44.621Z,0
2017-02-28T05:45:25.170Z,0
2017-02-28T05:46:05.706Z,0
2017-02-28T05:46:46.253Z,0
2017-02-28T05:47:26.801Z,0
2017-02-28T05:48:07.334Z,0
2017-02-28T05:48:47.871Z,0
2017-02-28T05:49:28.416Z,0
2017-02-28T05:50:08.994Z,0
2017-02-28T05:50:49.527Z,0
2017-02-28T05:51:30.082Z,0
2017-02-28T05:52:10.618Z,0
2017-02-28T05:52:51.149Z,0
2017-02-28T05:53:31.691Z,0
2017-02-28T05:54:12.248Z,0
2017-02-28T05:54:52.788Z,0
2017-02-28T05:55:33.326Z,0
2017-02-28T05:56:13.875Z,0
2017-02-28T05:56:54.390Z,0
2017-02-28T05:57:34.925Z,0
2017-02-28T05:58:15.457Z,0
2017-02-28T05:58:55.993Z,0
2017-02-28T05:59:36.528Z,0
2017-02-28T06:00:17.069Z,0
2017-02-28T06:00:57.623Z,0
2017-02-28T06:01:38.168Z,0
2017-02-28T06:02:18.715Z,0
2017-02-28T06:02:59.244Z,0
2017-02-28T06:03:39.784Z,0
2017-02-28T06:04:20.322Z,0
2017-02-28T06:05:00.869Z,0
2017-02-28T06:05:41.430Z,0
2017-02-28T06:06:21.965Z,0
2017-02-28T06:07:02.501Z,0
2017-02-28T06:07:43.039Z,0
2017-02-28T06:08:23.580Z,0
2017-02-28T06:09:04.123Z,0
2017-02-28T06:09:44.659Z,0
2017-02-28T06:10:25.200Z,0
2017-02-28T06:11:05.739Z,0
2017-02-28T06:11:46.282Z,0
2017-02-28T06:12:26.830Z,0
2017-02-28T06:13:07.372Z,0
2017-02-28T06:13:47.907Z,0
2017-02-28T06:14:28.439Z,0
2017-02-28T06:15:08.976Z,0
2017-02-28T06:15:49.520Z,5
2017-02-28T06:16:30.054Z,5
2017-02-28T06:17:10.614Z,5
2017-02-28T06:17:51.149Z,5
2017-02-28T06:18:31.685Z,5
2017-02-28T06:19:12.227Z,5
2017-02-28T06:19:52.762Z,5
2017-02-28T06:20:33.305Z,5
2017-02-28T06:21:13.843Z,5
2017-02-28T06:21:54.385Z,5
2017-02-28T06:22:34.934Z,5
2017-02-28T06:23:15.467Z,10
2017-02-28T06:23:56.005Z,10
2017-02-28T06:24:36.548Z,10
2017-02-28T06:25:17.083Z,10
2017-02-28T06:25:57.618Z,15
2017-02-28T06:26:38.152Z,15
2017-02-28T06:27:18.691Z,15
2017-02-28T06:27:59.240Z,15
2017-02-28T06:28:39.774Z,15
2017-02-28T06:29:20.311Z,15
2017-02-28T06:30:00.858Z,15
2017-02-28T06:30:41.390Z,20
2017-02-28T06:31:21.938Z,20
2017-02-28T06:32:02.481Z,20
2017-02-28T06:32:43.027Z,20
2017-02-28T06:33:23.574Z,25
2017-02-28T06:34:04.117Z,25
2017-02-28T06:34:44.657Z,25
2017-02-28T06:35:25.205Z,30
2017-02-28T06:36:05.750Z,30
2017-02-28T06:36:46.292Z,30
2017-02-28T06:37:26.826Z,30
2017-02-28T06:38:07.365Z,30
2017-02-28T06:38:47.900Z,30
2017-02-28T06:39:28.433Z,35
2017-02-28T06:40:08.974Z,35
2017-02-28T06:40:49.541Z,35
2017-02-28T06:41:30.078Z,35
2017-02-28T06:42:10.614Z,35
2017-02-28T06:42:51.154Z,40
2017-02-28T06:43:31.683Z,40
2017-02-28T06:44:12.223Z,40
2017-02-28T06:44:52.769Z,45
2017-02-28T06:45:33.300Z,45
2017-02-28T06:46:13.836Z,50
2017-02-28T06:46:54.391Z,55
2017-02-28T06:47:34.906Z,55
2017-02-28T06:48:15.449Z,55
2017-02-28T06:48:56.324Z,60
2017-02-28T06:49:37.050Z,60
2017-02-28T06:50:17.583Z,60
2017-02-28T06:50:58.116Z,60
2017-02-28T06:51:38.651Z,60
2017-02-28T06:52:19.202Z,60
2017-02-28T06:52:59.741Z,60
2017-02-28T06:53:40.277Z,65
2017-02-28T06:54:20.823Z,70
2017-02-28T06:55:01.414Z,75
2017-02-28T06:55:41.967Z,80
2017-02-28T06:56:22.509Z,80
2017-02-28T06:57:03.060Z,85
2017-02-28T06:57:43.602Z,85
2017-02-28T06:58:24.165Z,80
2017-02-28T06:59:04.706Z,80
2017-02-28T06:59:45.239Z,80
2017-02-28T07:00:25.775Z,80
2017-02-28T07:01:06.329Z,80
2017-02-28T07:01:46.861Z,80
2017-02-28T07:02:27.397Z,80
2017-02-28T07:03:07.930Z,80
2017-02-28T07:03:48.465Z,85
2017-02-28T07:04:29.043Z,85
2017-02-28T07:05:09.573Z,85
2017-02-28T07:05:50.117Z,85
2017-02-28T07:06:30.651Z,90
2017-02-28T07:07:11.192Z,90
2017-02-28T07:07:51.739Z,90
2017-02-28T07:08:32.273Z,90
2017-02-28T07:09:12.907Z,90
2017-02-28T07:09:53.467Z,90
2017-02-28T07:10:34.057Z,90
2017-02-28T07:11:14.599Z,95
2017-02-28T07:11:55.193Z,95
2017-02-28T07:12:35.760Z,95
2017-02-28T07:13:16.533Z,95
2017-02-28T07:13:57.081Z,100
2017-02-28T07:14:37.647Z,100
2017-02-28T07:15:18.188Z,100
2017-02-28T07:15:58.764Z,100
2017-02-28T07:16:39.385Z,100
2017-02-28T07:17:19.929Z,105
2017-02-28T07:18:00.490Z,105
2017-02-28T07:18:41.094Z,105
2017-02-28T07:19:21.634Z,105
2017-02-28T07:20:02.176Z,110
2017-02-28T07:20:42.718Z,110
2017-02-28T07:21:23.247Z,110
2017-02-28T07:22:03.796Z,110
2017-02-28T07:22:44.334Z,110
2017-02-28T07:23:24.868Z,115
2017-02-28T07:24:05.416Z,115
2017-02-28T07:24:45.953Z,115
2017-02-28T07:25:26.497Z,115
2017-02-28T07:26:07.043Z,115
2017-02-28T07:26:47.586Z,120
2017-02-28T07:27:28.126Z,120
2017-02-28T07:28:08.670Z,120
2017-02-28T07:28:49.208Z,120
2017-02-28T07:29:29.745Z,125
2017-02-28T07:30:10.271Z,125
2017-02-28T07:30:50.810Z,125
2017-02-28T07:31:31.352Z,125
2017-02-28T07:32:11.893Z,130
2017-02-28T07:32:52.429Z,130
2017-02-28T07:33:32.971Z,130
2017-02-28T07:34:13.507Z,130
2017-02-28T07:34:54.063Z,130
2017-02-28T07:35:34.598Z,130
2017-02-28T07:36:15.129Z,135
2017-02-28T07:36:55.666Z,135
2017-02-28T07:37:36.212Z,135
2017-02-28T07:38:16.753Z,135
2017-02-28T07:38:57.287Z,135
2017-02-28T07:39:37.827Z,140
2017-02-28T07:40:18.362Z,140
2017-02-28T07:40:58.937Z,140
2017-02-28T07:41:39.476Z,140
2017-02-28T07:42:20.019Z,145
2017-02-28T07:43:00.554Z,145
2017-02-28T07:43:41.084Z,145
2017-02-28T07:44:21.623Z,145
2017-02-28T07:45:02.171Z,145
2017-02-28T07:45:42.706Z,150
2017-02-28T07:46:23.245Z,150
2017-02-28T07:47:03.795Z,150
2017-02-28T07:47:44.314Z,150
2017-02-28T07:48:24.860Z,150
2017-02-28T07:49:05.400Z,155
2017-02-28T07:49:45.943Z,155
2017-02-28T07:50:26.478Z,155
2017-02-28T07:51:07.021Z,155
2017-02-28T07:51:47.571Z,155
2017-02-28T07:52:28.104Z,160
2017-02-28T07:53:08.647Z,160
2017-02-28T07:53:49.187Z,160
2017-02-28T07:54:29.721Z,160
2017-02-28T07:55:10.261Z,165
2017-02-28T07:55:50.794Z,165
2017-02-28T07:56:31.338Z,165
2017-02-28T07:57:11.875Z,165
2017-02-28T07:57:52.415Z,165
2017-02-28T07:58:32.954Z,165
2017-02-28T07:59:13.506Z,165
2017-02-28T07:59:54.036Z,165
2017-02-28T08:00:34.573Z,170
2017-02-28T08:01:15.109Z,170
2017-02-28T08:01:55.641Z,170
2017-02-28T08:02:36.194Z,175
2017-02-28T08:03:16.729Z,175
2017-02-28T08:03:57.260Z,175
2017-02-28T08:04:37.818Z,175
2017-02-28T08:05:18.352Z,180
2017-02-28T08:05:58.880Z,180
2017-02-28T08:06:39.421Z,180
2017-02-28T08:07:19.955Z,185
2017-02-28T08:08:00.496Z,185
2017-02-28T08:08:41.056Z,180
2017-02-28T08:09:21.596Z,185
2017-02-28T08:10:02.151Z,185
2017-02-28T08:10:43.485Z,190
2017-02-28T08:11:24.032Z,195
2017-02-28T08:12:04.582Z,200
2017-02-28T08:12:45.120Z,200
2017-02-28T08:13:25.661Z,205
2017-02-28T08:14:06.199Z,210
2017-02-28T08:14:46.803Z,210
2017-02-28T08:15:27.346Z,215
2017-02-28T08:16:07.892Z,215
2017-02-28T08:16:48.417Z,220
2017-02-28T08:17:28.955Z,220
2017-02-28T08:18:09.487Z,220
2017-02-28T08:18:50.100Z,225
2017-02-28T08:19:30.634Z,225
2017-02-28T08:20:11.163Z,225
2017-02-28T08:20:51.711Z,230
2017-02-28T08:21:32.260Z,230
2017-02-28T08:22:12.808Z,235
2017-02-28T08:22:53.342Z,295
2017-02-28T08:23:33.881Z,465
2017-02-28T08:24:14.427Z,660
2017-02-28T08:24:54.981Z,815
2017-02-28T08:25:35.527Z,715
2017-02-28T08:26:16.094Z,625
2017-02-28T08:26:56.629Z,515
2017-02-28T08:27:37.166Z,440
2017-02-28T08:28:17.711Z,300
2017-02-28T08:28:58.295Z,250
2017-02-28T08:29:38.834Z,265
2017-02-28T08:30:19.375Z,270
2017-02-28T08:30:59.915Z,290
2017-02-28T08:31:40.454Z,290
2017-02-28T08:32:21.005Z,280
2017-02-28T08:33:01.546Z,280
2017-02-28T08:33:42.108Z,245
2017-02-28T08:34:22.650Z,260
2017-02-28T08:35:03.194Z,270
2017-02-28T08:35:43.730Z,265
2017-02-28T08:36:24.280Z,260
2017-02-28T08:37:04.827Z,275
2017-02-28T08:37:45.371Z,255
2017-02-28T08:38:25.911Z,225
2017-02-28T08:39:06.449Z,255
2017-02-28T08:39:46.990Z,270
2017-02-28T08:40:27.537Z,285
2017-02-28T08:41:08.078Z,295
2017-02-28T08:41:48.617Z,285
2017-02-28T08:42:29.158Z,275
2017-02-28T08:43:09.686Z,275
2017-02-28T08:43:50.228Z,270
2017-02-28T08:44:30.763Z,280
2017-02-28T08:45:11.301Z,275
2017-02-28T08:45:51.843Z,275
2017-02-28T08:46:32.385Z,270
2017-02-28T08:47:12.919Z,275
2017-02-28T08:47:53.452Z,280
2017-02-28T08:48:33.988Z,280
2017-02-28T08:49:14.531Z,275
2017-02-28T08:49:55.066Z,295
2017-02-28T08:50:35.639Z,275
2017-02-28T08:51:16.145Z,290
2017-02-28T08:51:56.691Z,315
2017-02-28T08:52:37.228Z,315
2017-02-28T08:53:17.776Z,230
2017-02-28T08:53:58.321Z,235
2017-02-28T08:54:38.852Z,220
2017-02-28T08:55:19.394Z,300
2017-02-28T08:55:59.939Z,310
2017-02-28T08:56:40.537Z,315
2017-02-28T08:57:21.079Z,335
2017-02-28T08:58:01.631Z,330
2017-02-28T08:58:42.171Z,315
2017-02-28T08:59:22.708Z,375
2017-02-28T09:00:03.252Z,370
2017-02-28T09:00:43.797Z,365
2017-02-28T09:01:24.329Z,375
2017-02-28T09:02:04.872Z,365
2017-02-28T09:02:45.424Z,380
2017-02-28T09:03:25.963Z,325
2017-02-28T09:04:06.502Z,585
2017-02-28T09:04:47.048Z,665
2017-02-28T09:05:27.589Z,875
2017-02-28T09:06:08.115Z,295
2017-02-28T09:06:48.651Z,940
2017-02-28T09:07:29.184Z,310
2017-02-28T09:08:09.733Z,295
2017-02-28T09:08:50.266Z,295
2017-02-28T09:09:30.808Z,610
2017-02-28T09:10:11.350Z,325
2017-02-28T09:10:51.892Z,335
2017-02-28T09:11:32.438Z,410
2017-02-28T09:12:12.966Z,380
2017-02-28T09:12:53.506Z,370
2017-02-28T09:13:34.040Z,355
2017-02-28T09:14:14.592Z,445
2017-02-28T09:14:55.126Z,440
2017-02-28T09:15:35.670Z,440
2017-02-28T09:16:16.207Z,440
2017-02-28T09:16:56.750Z,410
2017-02-28T09:17:37.293Z,340
2017-02-28T09:18:17.835Z,465
2017-02-28T09:18:58.368Z,515
2017-02-28T09:19:38.911Z,705
2017-02-28T09:20:19.447Z,1135
2017-02-28T09:20:59.998Z,1645
2017-02-28T09:21:40.552Z,1960
2017-02-28T09:22:21.089Z,2030
2017-02-28T09:23:01.631Z,2060
2017-02-28T09:23:42.174Z,1745
2017-02-28T09:24:24.006Z,725
2017-02-28T09:25:04.546Z,2075
2017-02-28T09:25:45.082Z,520
2017-02-28T09:26:25.632Z,875
2017-02-28T09:27:06.175Z,370
2017-02-28T09:27:46.738Z,1935
2017-02-28T09:28:27.275Z,1250
2017-02-28T09:29:07.834Z,2090
2017-02-28T09:29:48.393Z,2065
2017-02-28T09:30:28.929Z,2185
2017-02-28T09:31:09.483Z,1235
2017-02-28T09:31:50.032Z,2160
2017-02-28T09:32:30.576Z,400
2017-02-28T09:33:11.120Z,2240
2017-02-28T09:33:51.677Z,2225
2017-02-28T09:34:32.221Z,2235
2017-02-28T09:35:12.769Z,2145
2017-02-28T09:35:53.302Z,2275
2017-02-28T09:36:33.855Z,2375
2017-02-28T09:37:14.417Z,2230
2017-02-28T09:37:54.958Z,2215
2017-02-28T09:38:35.505Z,2210
2017-02-28T09:39:16.046Z,2260
2017-02-28T09:39:56.595Z,2375
2017-02-28T09:40:37.139Z,2515
2017-02-28T09:41:17.677Z,2535
2017-02-28T09:41:58.217Z,2595
2017-02-28T09:42:38.754Z,2355
2017-02-28T09:43:19.294Z,2440
2017-02-28T09:43:59.840Z,1445
2017-02-28T09:44:40.381Z,665
2017-02-28T09:45:20.926Z,1970
2017-02-28T09:46:01.468Z,1930
2017-02-28T09:46:42.010Z,1990
2017-02-28T09:47:22.563Z,2200
2017-02-28T09:48:03.107Z,2200
2017-02-28T09:48:43.641Z,2070
2017-02-28T09:49:24.183Z,2125
2017-02-28T09:50:04.731Z,2270
2017-02-28T09:50:45.309Z,2365
2017-02-28T09:51:25.849Z,2470
2017-02-28T09:52:06.386Z,2450
2017-02-28T09:52:46.938Z,2565
2017-02-28T09:53:27.487Z,2540
2017-02-28T09:54:08.028Z,2540
2017-02-28T09:54:48.565Z,2650
2017-02-28T09:55:29.107Z,2605
2017-02-28T09:56:09.651Z,2205
2017-02-28T09:56:50.184Z,2290
2017-02-28T09:57:30.733Z,2670
2017-02-28T09:58:11.275Z,2480
2017-02-28T09:58:51.800Z,2405
2017-02-28T09:59:32.341Z,2485
2017-02-28T10:00:12.876Z,2530
2017-02-28T10:00:53.413Z,2620
2017-02-28T10:01:33.963Z,2680
2017-02-28T10:02:14.511Z,2705
2017-02-28T10:02:55.075Z,2710
2017-02-28T10:03:35.618Z,2655
2017-02-28T10:04:16.170Z,2715
2017-02-28T10:04:56.717Z,2695
2017-02-28T10:05:37.266Z,2710
2017-02-28T10:06:17.808Z,2700
2017-02-28T10:06:58.357Z,2665
2017-02-28T10:07:38.901Z,2690
2017-02-28T10:08:19.444Z,2715
2017-02-28T10:08:59.999Z,2740
2017-02-28T10:09:40.542Z,2745
2017-02-28T10:10:21.095Z,2790
2017-02-28T10:11:01.656Z,2780
2017-02-28T10:11:42.187Z,2740
2017-02-28T10:12:22.729Z,2745
2017-02-28T10:13:03.273Z,2785
2017-02-28T10:13:43.824Z,2785
2017-02-28T10:14:24.362Z,2780
2017-02-28T10:15:04.909Z,2765
2017-02-28T10:15:45.443Z,2815
2017-02-28T10:16:25.994Z,2840
2017-02-28T10:17:06.533Z,2855
2017-02-28T10:17:47.078Z,2845
2017-02-28T10:18:27.620Z,2870
2017-02-28T10:19:08.227Z,2870
2017-02-28T10:19:48.766Z,2860
2017-02-28T10:20:29.318Z,2810
2017-02-28T10:21:09.868Z,2825
2017-02-28T10:21:50.420Z,2745
2017-02-28T10:22:30.965Z,2665
2017-02-28T10:23:11.520Z,2650
2017-02-28T10:23:52.070Z,2715